Time;durP1;ratioP1;P1;durP2;ratioP2;P2;SDS_P1;SDS_P2;PMS_P1;PMS_P2;Temp;Humidity;BMP_temperature;BMP_pressure;BME280_temperature;BME280_humidity;BME280_pressure;Samples;Min_cycle;Max_cycle;Signal;HPM_P1;HPM_P2
2023/05/29 00:01:12;;;;;;;6.05;2.50;;;17.70;99.90;;;;;;4999227;28;20031;-74
2023/05/29 00:03:38;;;;;;;6.47;2.38;;;17.50;99.90;;;;;;4999057;28;20073;-74
2023/05/29 00:06:05;;;;;;;4.50;2.25;;;17.30;99.90;;;;;;4998918;28;20023;-74
2023/05/29 00:08:31;;;;;;;3.78;2.25;;;17.20;99.90;;;;;;4999405;28;20026;-75
2023/05/29 00:10:57;;;;;;;4.65;2.30;;;17.10;99.90;;;;;;4999264;28;20096;-74
2023/05/29 00:13:23;;;;;;;7.97;2.38;;;17.10;99.90;;;;;;5000057;28;20022;-74
2023/05/29 00:15:48;;;;;;;4.40;2.15;;;17.00;99.90;;;;;;4999101;28;20030;-74
2023/05/29 00:18:14;;;;;;;4.85;2.45;;;17.10;99.90;;;;;;4999108;28;20080;-74
2023/05/29 00:20:40;;;;;;;4.65;2.38;;;17.10;99.90;;;;;;4999119;28;20029;-74
2023/05/29 00:23:06;;;;;;;6.30;2.65;;;17.10;99.90;;;;;;4999033;28;20161;-74
2023/05/29 00:25:32;;;;;;;5.68;2.90;;;17.20;99.90;;;;;;4999396;28;20029;-73
2023/05/29 00:27:59;;;;;;;6.13;2.40;;;17.20;99.90;;;;;;4999136;28;20144;-73
2023/05/29 00:30:24;;;;;;;5.32;1.90;;;17.20;99.90;;;;;;4998837;28;20050;-73
2023/05/29 00:32:51;;;;;;;5.10;2.53;;;17.10;99.90;;;;;;4998653;28;20026;-73
2023/05/29 00:35:17;;;;;;;5.07;2.20;;;17.10;99.90;;;;;;4998417;28;20030;-73
2023/05/29 00:37:43;;;;;;;6.07;2.17;;;17.10;99.90;;;;;;4999275;28;20030;-73
2023/05/29 00:40:09;;;;;;;8.20;2.42;;;17.10;99.90;;;;;;4998716;28;20032;-73
2023/05/29 00:42:35;;;;;;;5.95;2.05;;;17.00;99.90;;;;;;4998286;28;20030;-73
2023/05/29 00:45:01;;;;;;;4.03;2.17;;;17.00;99.90;;;;;;4998285;28;20121;-73
2023/05/29 00:47:26;;;;;;;7.10;2.45;;;17.00;99.90;;;;;;4998502;28;20027;-73
2023/05/29 00:49:53;;;;;;;5.57;2.65;;;16.90;99.90;;;;;;4998975;28;20054;-73
2023/05/29 00:52:20;;;;;;;6.18;2.58;;;17.00;99.90;;;;;;4998386;28;20022;-73
2023/05/29 00:54:46;;;;;;;8.95;2.88;;;17.00;99.90;;;;;;4998866;28;20030;-73
2023/05/29 00:57:13;;;;;;;5.38;2.30;;;17.00;99.90;;;;;;4997279;28;20022;-73
2023/05/29 00:59:40;;;;;;;7.07;2.50;;;17.00;99.90;;;;;;4998500;28;20030;-73
2023/05/29 01:02:07;;;;;;;3.20;2.13;;;17.00;99.90;;;;;;4998330;28;20085;-73
2023/05/29 01:04:35;;;;;;;6.05;2.55;;;16.90;99.90;;;;;;4998237;28;20026;-73
2023/05/29 01:07:02;;;;;;;9.98;2.55;;;16.90;99.90;;;;;;4998084;28;20050;-73
2023/05/29 01:09:29;;;;;;;7.75;2.70;;;16.80;99.90;;;;;;4998116;28;20077;-72
2023/05/29 01:12:15;;;;;;;13.55;3.55;;;16.80;99.90;;;;;;4998170;28;20076;-73
2023/05/29 01:15:09;;;;;;;4.32;2.65;;;16.70;99.90;;;;;;4998293;28;20050;-73
2023/05/29 01:17:40;;;;;;;6.40;2.92;;;16.50;99.90;;;;;;4998172;28;20022;-73
2023/05/29 01:20:44;;;;;;;7.65;3.03;;;16.40;99.90;;;;;;4997942;28;20060;-73
2023/05/29 01:23:33;;;;;;;11.40;3.38;;;16.40;99.90;;;;;;4997998;28;20034;-73
2023/05/29 01:26:25;;;;;;;6.38;2.83;;;16.60;99.90;;;;;;4997758;28;20037;-73
2023/05/29 01:28:53;;;;;;;8.68;3.08;;;16.70;99.90;;;;;;4997499;28;20033;-73
2023/05/29 01:31:23;;;;;;;8.70;3.35;;;16.50;99.90;;;;;;4997378;28;20033;-73
2023/05/29 01:33:56;;;;;;;8.00;3.15;;;16.70;99.90;;;;;;4998164;28;20023;-73
2023/05/29 01:36:23;;;;;;;5.93;3.08;;;16.50;99.90;;;;;;4997712;28;20023;-73
2023/05/29 01:38:51;;;;;;;7.18;3.10;;;16.50;99.90;;;;;;4997464;28;20022;-73
2023/05/29 01:41:18;;;;;;;8.30;3.00;;;16.40;99.90;;;;;;4997569;28;20121;-73
2023/05/29 01:43:46;;;;;;;7.90;2.90;;;16.40;99.90;;;;;;4997552;28;20030;-73
2023/05/29 01:46:13;;;;;;;10.52;3.38;;;16.30;99.90;;;;;;4997186;28;20116;-73
2023/05/29 01:48:43;;;;;;;6.72;3.58;;;16.40;99.90;;;;;;4997146;28;20037;-73
2023/05/29 01:51:10;;;;;;;6.07;3.35;;;16.30;99.90;;;;;;4997265;28;20027;-73
2023/05/29 01:53:36;;;;;;;6.75;3.22;;;16.10;99.90;;;;;;4997032;28;20022;-73
2023/05/29 01:56:04;;;;;;;8.20;3.28;;;16.10;99.90;;;;;;4997440;28;20022;-73
2023/05/29 01:58:31;;;;;;;7.00;3.45;;;15.90;99.90;;;;;;4996942;28;20030;-73
2023/05/29 02:00:57;;;;;;;9.65;3.25;;;16.10;99.90;;;;;;4997845;28;20188;-73
2023/05/29 02:03:23;;;;;;;10.10;3.40;;;16.10;99.90;;;;;;4997245;28;20030;-73
2023/05/29 02:05:49;;;;;;;5.97;2.97;;;16.00;99.90;;;;;;4997151;28;20053;-73
2023/05/29 02:08:15;;;;;;;8.15;3.22;;;15.80;99.90;;;;;;4997472;28;20026;-73
2023/05/29 02:10:40;;;;;;;12.00;3.20;;;16.00;99.90;;;;;;4997104;28;20090;-73
2023/05/29 02:13:06;;;;;;;9.30;2.72;;;16.20;99.90;;;;;;4996837;28;20034;-73
2023/05/29 02:15:31;;;;;;;6.15;2.88;;;16.20;99.90;;;;;;4996726;28;20030;-73
2023/05/29 02:17:57;;;;;;;4.78;2.97;;;16.20;99.90;;;;;;4996774;28;20118;-73
2023/05/29 02:20:24;;;;;;;8.23;3.88;;;16.10;99.90;;;;;;4997032;28;20041;-73
2023/05/29 02:22:50;;;;;;;5.43;2.90;;;16.10;99.90;;;;;;4996988;28;20034;-73
2023/05/29 02:25:15;;;;;;;15.75;3.58;;;15.80;99.90;;;;;;4996834;28;20030;-73
2023/05/29 02:27:41;;;;;;;6.93;3.17;;;15.80;99.90;;;;;;4997511;28;20030;-73
2023/05/29 02:30:08;;;;;;;10.60;3.88;;;15.60;99.90;;;;;;4996834;28;20033;-73
2023/05/29 02:32:33;;;;;;;9.90;3.55;;;15.60;99.90;;;;;;4997203;28;20018;-74
2023/05/29 02:34:59;;;;;;;8.88;3.25;;;15.60;99.90;;;;;;4996521;28;20030;-73
2023/05/29 02:37:25;;;;;;;8.20;3.25;;;15.60;99.90;;;;;;4997169;28;20026;-73
2023/05/29 02:39:51;;;;;;;8.93;3.65;;;15.60;99.90;;;;;;4997646;28;20113;-73
2023/05/29 02:42:17;;;;;;;6.90;3.35;;;15.50;99.90;;;;;;4997347;28;20062;-73
2023/05/29 02:44:42;;;;;;;8.20;3.30;;;15.50;99.90;;;;;;4996472;28;20034;-73
2023/05/29 02:47:08;;;;;;;4.15;3.20;;;15.30;99.90;;;;;;4996675;28;20077;-73
2023/05/29 02:49:33;;;;;;;11.20;4.18;;;15.50;99.90;;;;;;4996953;28;20022;-73
2023/05/29 02:51:59;;;;;;;7.78;3.13;;;15.20;99.90;;;;;;4996882;28;20027;-73
2023/05/29 02:54:27;;;;;;;9.73;3.05;;;15.40;99.90;;;;;;4996359;28;20018;-73
2023/05/29 02:56:53;;;;;;;10.32;3.75;;;15.50;99.90;;;;;;4996718;28;20030;-73
2023/05/29 02:59:19;;;;;;;10.18;3.50;;;15.60;99.90;;;;;;4996810;28;20041;-73
2023/05/29 03:01:45;;;;;;;5.38;3.40;;;15.70;99.90;;;;;;4997089;28;20026;-73
2023/05/29 03:04:11;;;;;;;11.70;3.83;;;15.40;99.90;;;;;;4997218;28;20122;-73
2023/05/29 03:06:36;;;;;;;6.97;3.33;;;15.40;99.90;;;;;;4996312;28;20073;-73
2023/05/29 03:09:04;;;;;;;11.13;3.47;;;15.50;99.90;;;;;;4996436;28;20049;-73
2023/05/29 03:11:31;;;;;;;7.25;3.20;;;15.50;99.90;;;;;;4996575;28;20018;-73
2023/05/29 03:13:56;;;;;;;11.80;4.07;;;15.40;99.90;;;;;;4997088;28;20019;-73
2023/05/29 03:16:22;;;;;;;7.18;3.55;;;15.40;99.90;;;;;;4996690;28;20022;-73
2023/05/29 03:18:47;;;;;;;11.73;4.55;;;15.40;99.90;;;;;;4996205;28;20018;-72
2023/05/29 03:21:13;;;;;;;14.35;3.70;;;15.20;99.90;;;;;;4999788;28;20029;-73
2023/05/29 03:23:38;;;;;;;7.70;3.45;;;15.30;99.90;;;;;;5000192;28;20130;-73
2023/05/29 03:26:05;;;;;;;8.25;3.38;;;15.20;99.90;;;;;;4999409;28;20045;-73
2023/05/29 03:28:31;;;;;;;10.23;2.95;;;15.30;99.90;;;;;;5000557;28;20037;-73
2023/05/29 03:30:56;;;;;;;8.90;3.97;;;15.40;99.90;;;;;;4999694;28;20022;-73
2023/05/29 03:33:22;;;;;;;9.82;3.47;;;15.40;99.90;;;;;;4999766;28;20026;-73
2023/05/29 03:35:48;;;;;;;7.30;3.20;;;15.30;99.90;;;;;;4999912;28;20027;-73
2023/05/29 03:38:13;;;;;;;7.28;3.53;;;15.30;99.90;;;;;;4999711;28;20022;-73
2023/05/29 03:40:39;;;;;;;9.00;3.17;;;15.10;99.90;;;;;;4999898;28;20041;-73
2023/05/29 03:43:04;;;;;;;8.60;3.65;;;15.20;99.90;;;;;;4999498;28;20132;-73
2023/05/29 03:45:30;;;;;;;8.93;3.25;;;15.10;99.90;;;;;;4999312;28;20026;-73
2023/05/29 03:47:55;;;;;;;7.75;3.33;;;15.30;99.90;;;;;;4999454;28;20069;-73
2023/05/29 03:50:21;;;;;;;12.55;4.05;;;15.40;99.90;;;;;;4999617;28;20018;-73
2023/05/29 03:52:46;;;;;;;6.38;3.72;;;15.20;99.90;;;;;;4999962;28;20077;-73
2023/05/29 03:55:14;;;;;;;8.80;3.63;;;15.00;99.90;;;;;;5000303;28;20035;-73
2023/05/29 03:57:40;;;;;;;5.35;3.15;;;15.10;99.90;;;;;;5000033;28;20033;-73
2023/05/29 04:00:08;;;;;;;6.90;3.13;;;15.30;99.90;;;;;;4999211;28;20030;-73
2023/05/29 04:02:34;;;;;;;8.27;3.35;;;15.30;99.90;;;;;;5000006;28;20046;-73
2023/05/29 04:05:00;;;;;;;10.35;4.00;;;14.90;99.90;;;;;;4999326;28;20034;-73
2023/05/29 04:07:25;;;;;;;10.20;3.83;;;14.80;99.90;;;;;;4999501;28;20030;-73
2023/05/29 04:09:51;;;;;;;8.63;3.75;;;14.80;99.90;;;;;;4999507;28;20022;-73
2023/05/29 04:12:16;;;;;;;7.55;4.22;;;14.90;99.90;;;;;;4999152;28;20085;-73
2023/05/29 04:14:42;;;;;;;9.85;3.58;;;14.90;99.90;;;;;;4999349;28;20026;-73
2023/05/29 04:17:07;;;;;;;12.45;3.85;;;15.10;99.90;;;;;;4999143;28;20030;-73
2023/05/29 04:19:33;;;;;;;13.18;4.60;;;15.10;99.90;;;;;;4999585;28;20022;-73
2023/05/29 04:21:58;;;;;;;13.15;4.00;;;14.80;99.90;;;;;;4999887;28;20037;-73
2023/05/29 04:24:24;;;;;;;10.50;3.47;;;14.70;99.90;;;;;;4998667;28;20058;-73
2023/05/29 04:26:51;;;;;;;8.88;3.10;;;14.70;99.90;;;;;;4998617;28;20046;-73
2023/05/29 04:29:16;;;;;;;10.57;3.33;;;14.50;99.90;;;;;;4999084;28;20037;-73
2023/05/29 04:31:42;;;;;;;5.53;3.33;;;14.80;99.90;;;;;;4998537;28;20022;-73
2023/05/29 04:34:08;;;;;;;6.13;3.00;;;14.90;99.90;;;;;;4998698;28;20022;-73
2023/05/29 04:36:38;;;;;;;6.22;3.50;;;14.90;99.90;;;;;;4998854;28;20125;-73
2023/05/29 04:39:05;;;;;;;7.25;3.22;;;15.00;99.90;;;;;;4998517;28;20027;-73
2023/05/29 04:41:31;;;;;;;7.90;3.50;;;14.90;99.90;;;;;;4998763;28;20121;-73
2023/05/29 04:43:56;;;;;;;6.53;3.60;;;14.90;99.90;;;;;;4999111;28;20065;-73
2023/05/29 04:46:24;;;;;;;8.07;3.30;;;14.90;99.90;;;;;;4998881;28;20026;-73
2023/05/29 04:48:52;;;;;;;7.95;3.13;;;15.00;99.90;;;;;;4999068;28;20031;-73
2023/05/29 04:51:19;;;;;;;5.22;3.08;;;14.90;99.90;;;;;;4998326;28;20142;-73
2023/05/29 04:53:46;;;;;;;6.70;3.63;;;14.70;99.90;;;;;;4999006;28;20023;-73
2023/05/29 04:56:12;;;;;;;9.98;3.75;;;14.70;99.90;;;;;;4998152;28;20045;-73
2023/05/29 04:58:38;;;;;;;5.63;3.13;;;14.70;99.90;;;;;;4998379;28;20027;-73
2023/05/29 05:01:04;;;;;;;10.82;3.25;;;14.80;99.90;;;;;;4998130;28;20057;-73
2023/05/29 05:03:33;;;;;;;11.65;3.60;;;14.80;99.90;;;;;;4997946;28;20018;-73
2023/05/29 05:06:03;;;;;;;11.68;3.60;;;14.90;99.90;;;;;;4997879;28;20031;-73
2023/05/29 05:08:29;;;;;;;8.50;3.58;;;14.90;99.90;;;;;;4998373;28;20030;-73
2023/05/29 05:10:55;;;;;;;11.15;4.07;;;14.90;99.90;;;;;;4998174;28;20030;-73
2023/05/29 05:13:21;;;;;;;6.28;3.65;;;14.90;99.90;;;;;;4997928;28;20022;-72
2023/05/29 05:15:46;;;;;;;9.10;3.58;;;14.90;99.90;;;;;;4998113;28;20031;-72
2023/05/29 05:18:12;;;;;;;10.18;3.60;;;14.90;99.90;;;;;;4997969;28;20061;-73
2023/05/29 05:20:37;;;;;;;7.45;3.03;;;15.00;99.90;;;;;;4997879;28;20022;-73
2023/05/29 05:23:03;;;;;;;7.20;2.97;;;15.20;99.90;;;;;;4998512;28;20029;-73
2023/05/29 05:25:28;;;;;;;7.30;3.50;;;15.50;99.90;;;;;;4997602;28;20061;-73
2023/05/29 05:27:54;;;;;;;8.40;2.92;;;15.70;99.90;;;;;;4998268;28;20027;-73
2023/05/29 05:30:19;;;;;;;6.72;3.20;;;15.80;99.90;;;;;;4998471;28;20022;-73
2023/05/29 05:32:45;;;;;;;7.57;3.70;;;15.90;99.90;;;;;;4997814;28;20018;-73
2023/05/29 05:35:11;;;;;;;6.10;3.17;;;16.00;99.90;;;;;;4998090;28;20026;-73
2023/05/29 05:37:37;;;;;;;9.07;3.03;;;16.00;99.90;;;;;;4997738;28;20030;-73
2023/05/29 05:40:06;;;;;;;6.93;2.50;;;16.10;99.90;;;;;;4997694;28;20029;-73
2023/05/29 05:42:32;;;;;;;8.45;3.70;;;16.00;99.90;;;;;;4997057;28;20065;-73
2023/05/29 05:44:57;;;;;;;7.95;3.30;;;16.20;99.90;;;;;;4997165;28;20057;-73
2023/05/29 05:47:23;;;;;;;6.10;2.72;;;16.20;99.90;;;;;;4997692;28;20069;-73
2023/05/29 05:49:51;;;;;;;10.32;3.35;;;16.20;99.90;;;;;;4997633;28;20076;-73
2023/05/29 05:52:17;;;;;;;7.90;2.70;;;16.30;99.90;;;;;;4997254;28;20076;-73
2023/05/29 05:54:42;;;;;;;6.90;3.38;;;16.30;99.90;;;;;;4998074;28;20121;-73
2023/05/29 05:57:08;;;;;;;8.25;3.63;;;16.40;99.90;;;;;;4997211;28;20165;-74
2023/05/29 05:59:34;;;;;;;9.80;4.00;;;16.40;99.90;;;;;;4997498;28;20028;-73
2023/05/29 06:01:59;;;;;;;15.02;3.25;;;16.20;99.90;;;;;;4997813;28;20050;-73
2023/05/29 06:04:25;;;;;;;6.00;3.35;;;16.20;99.90;;;;;;4997936;28;20030;-73
2023/05/29 06:06:50;;;;;;;7.43;3.92;;;16.30;99.90;;;;;;4997325;28;20028;-73
2023/05/29 06:09:16;;;;;;;9.25;3.13;;;16.50;99.90;;;;;;4997150;28;20024;-73
2023/05/29 06:11:41;;;;;;;7.93;3.25;;;16.50;99.90;;;;;;4996929;28;20022;-73
2023/05/29 06:14:07;;;;;;;10.13;3.50;;;16.50;99.90;;;;;;4997310;28;20126;-73
2023/05/29 06:16:32;;;;;;;13.70;3.10;;;16.70;99.90;;;;;;4997133;28;20093;-73
2023/05/29 06:18:58;;;;;;;6.85;2.72;;;16.60;99.90;;;;;;4996881;28;20099;-73
2023/05/29 06:21:23;;;;;;;12.15;3.47;;;16.60;99.90;;;;;;4997826;28;20054;-73
2023/05/29 06:23:49;;;;;;;9.13;3.15;;;16.60;99.90;;;;;;4997220;28;20117;-73
2023/05/29 06:26:15;;;;;;;9.65;3.65;;;16.70;99.90;;;;;;4996903;28;20022;-72
2023/05/29 06:28:41;;;;;;;11.35;3.38;;;16.60;99.90;;;;;;4997606;28;20053;-72
2023/05/29 06:31:07;;;;;;;12.80;3.67;;;16.80;99.90;;;;;;4997956;28;20029;-73
2023/05/29 06:33:32;;;;;;;7.55;3.42;;;16.80;99.90;;;;;;4997149;28;20022;-73
2023/05/29 06:35:58;;;;;;;5.72;3.42;;;16.80;99.90;;;;;;4997414;28;20022;-73
2023/05/29 06:38:24;;;;;;;10.40;3.40;;;16.90;99.90;;;;;;4997609;28;20030;-73
2023/05/29 06:40:50;;;;;;;7.00;3.22;;;17.00;99.90;;;;;;4997705;28;20022;-73
2023/05/29 06:43:15;;;;;;;10.75;3.67;;;17.10;99.90;;;;;;4996698;28;20049;-73
2023/05/29 06:45:41;;;;;;;9.68;3.65;;;17.00;99.90;;;;;;4996454;28;20081;-72
2023/05/29 06:48:06;;;;;;;9.32;3.13;;;17.00;99.90;;;;;;4997604;28;20030;-73
2023/05/29 06:50:33;;;;;;;11.27;3.80;;;17.00;99.90;;;;;;4997526;28;20081;-73
2023/05/29 06:52:59;;;;;;;7.40;3.03;;;17.20;99.90;;;;;;4996989;28;20036;-73
2023/05/29 06:55:24;;;;;;;6.90;3.25;;;17.20;99.90;;;;;;4999892;28;20026;-73
2023/05/29 06:57:50;;;;;;;8.35;3.60;;;17.20;99.90;;;;;;5001295;28;20026;-73
2023/05/29 07:00:16;;;;;;;8.48;3.25;;;17.30;99.90;;;;;;5000280;28;20022;-73
2023/05/29 07:02:42;;;;;;;9.15;3.40;;;17.40;99.90;;;;;;5000816;28;20027;-73
2023/05/29 07:05:08;;;;;;;5.68;3.05;;;17.30;99.90;;;;;;5001173;28;20026;-73
2023/05/29 07:07:33;;;;;;;7.57;3.50;;;17.40;99.90;;;;;;5001283;28;20080;-72
2023/05/29 07:09:59;;;;;;;7.35;3.40;;;17.50;99.90;;;;;;5000640;28;20149;-72
2023/05/29 07:12:25;;;;;;;6.82;3.08;;;17.60;99.90;;;;;;5000624;28;20048;-72
2023/05/29 07:14:50;;;;;;;10.23;3.38;;;17.70;99.90;;;;;;5000765;28;20112;-72
2023/05/29 07:17:16;;;;;;;7.30;3.50;;;17.80;99.90;;;;;;5000259;28;20034;-73
2023/05/29 07:19:41;;;;;;;10.75;3.75;;;17.90;99.90;;;;;;5000351;28;20022;-73
2023/05/29 07:22:07;;;;;;;6.93;3.17;;;17.80;99.90;;;;;;5001072;28;20070;-73
2023/05/29 07:24:32;;;;;;;12.38;4.32;;;17.80;99.90;;;;;;5000106;28;20022;-73
2023/05/29 07:26:58;;;;;;;9.27;3.80;;;17.90;99.90;;;;;;4999770;28;20034;-73
2023/05/29 07:29:24;;;;;;;7.75;3.30;;;17.90;99.90;;;;;;4999828;28;20034;-73
2023/05/29 07:31:51;;;;;;;11.05;3.60;;;18.00;99.90;;;;;;5000551;28;20088;-73
2023/05/29 07:34:17;;;;;;;6.32;3.33;;;18.00;99.90;;;;;;5000032;28;20117;-73
2023/05/29 07:37:15;;;;;;;6.90;3.00;;;18.10;99.90;;;;;;4999953;28;20034;-73
2023/05/29 07:39:41;;;;;;;10.63;3.22;;;18.30;99.90;;;;;;4963598;28;20039;-73
2023/05/29 07:42:06;;;;;;;10.98;3.47;;;18.40;99.90;;;;;;4963208;28;20077;-73
2023/05/29 07:44:32;;;;;;;9.55;3.13;;;18.50;99.90;;;;;;4963142;28;20034;-73
2023/05/29 07:46:57;;;;;;;8.02;3.40;;;18.50;99.90;;;;;;4963215;28;20027;-73
2023/05/29 07:49:23;;;;;;;8.25;3.22;;;18.60;99.90;;;;;;4963344;28;20069;-73
2023/05/29 07:51:49;;;;;;;8.40;3.00;;;18.60;99.90;;;;;;4963725;28;20019;-72
2023/05/29 07:54:17;;;;;;;6.97;3.38;;;18.60;99.90;;;;;;4963033;28;20146;-72
2023/05/29 07:56:43;;;;;;;9.07;3.65;;;18.70;99.90;;;;;;4963129;28;20042;-72
2023/05/29 07:59:09;;;;;;;15.48;3.75;;;18.80;99.90;;;;;;4962983;28;20031;-73
2023/05/29 08:01:35;;;;;;;8.77;3.83;;;18.90;99.90;;;;;;4963369;28;20130;-73
2023/05/29 08:04:00;;;;;;;13.80;3.58;;;18.90;99.90;;;;;;4962802;28;20026;-73
2023/05/29 08:06:26;;;;;;;6.90;3.33;;;19.00;99.90;;;;;;4962393;28;20078;-72
2023/05/29 08:08:52;;;;;;;8.65;3.25;;;19.00;99.90;;;;;;4962886;28;20118;-72
2023/05/29 08:11:18;;;;;;;7.25;3.08;;;19.00;99.90;;;;;;4962951;28;20099;-72
2023/05/29 08:13:44;;;;;;;7.82;3.72;;;19.10;99.90;;;;;;4962905;28;20030;-71
2023/05/29 08:16:10;;;;;;;8.20;2.95;;;19.20;99.90;;;;;;4994913;28;20042;-71
2023/05/29 08:18:36;;;;;;;5.50;3.30;;;19.40;99.90;;;;;;4999154;28;20027;-71
2023/05/29 08:21:02;;;;;;;5.57;3.03;;;19.30;99.90;;;;;;4999085;28;20062;-70
2023/05/29 08:23:27;;;;;;;10.43;2.90;;;19.50;99.90;;;;;;4999201;28;20026;-71
2023/05/29 08:25:53;;;;;;;10.13;3.10;;;19.60;99.90;;;;;;4998951;28;20038;-71
2023/05/29 08:28:18;;;;;;;7.35;3.00;;;19.70;99.90;;;;;;4999232;28;20018;-71
2023/05/29 08:30:44;;;;;;;7.80;2.72;;;19.60;99.90;;;;;;4999562;28;20026;-70
2023/05/29 08:33:09;;;;;;;10.15;3.42;;;19.70;99.90;;;;;;4998599;28;20030;-71
2023/05/29 08:35:35;;;;;;;9.48;3.10;;;19.80;99.90;;;;;;4998593;28;20030;-71
2023/05/29 08:38:01;;;;;;;7.82;3.05;;;19.80;99.90;;;;;;4998722;28;20026;-71
2023/05/29 08:40:26;;;;;;;7.53;3.58;;;19.90;99.90;;;;;;4998820;28;20027;-71
2023/05/29 08:43:02;;;;;;;11.75;3.10;;;20.00;99.90;;;;;;4999451;28;20026;-71
2023/05/29 08:45:29;;;;;;;7.78;3.63;;;20.20;99.90;;;;;;4998995;28;20023;-70
2023/05/29 08:48:00;;;;;;;7.97;3.00;;;20.10;99.90;;;;;;4998750;28;20118;-70
2023/05/29 08:50:26;;;;;;;7.38;3.72;;;20.10;99.90;;;;;;4999173;28;20022;-71
2023/05/29 08:52:52;;;;;;;7.45;3.05;;;20.40;99.90;;;;;;4999019;28;20089;-71
2023/05/29 08:55:18;;;;;;;5.97;3.00;;;20.40;99.90;;;;;;4998545;28;20062;-70
2023/05/29 08:57:44;;;;;;;7.20;3.13;;;20.40;99.90;;;;;;4997995;28;20042;-71
2023/05/29 09:00:15;;;;;;;8.15;3.00;;;20.50;99.90;;;;;;4998486;28;20034;-71
2023/05/29 09:02:44;;;;;;;9.48;3.60;;;20.80;99.90;;;;;;4998833;28;20026;-70
2023/05/29 09:05:10;;;;;;;9.60;2.63;;;20.90;99.90;;;;;;4998164;28;20026;-70
2023/05/29 09:07:39;;;;;;;7.68;3.33;;;20.90;99.90;;;;;;4997924;28;20026;-72
2023/05/29 09:10:09;;;;;;;7.35;3.38;;;20.90;99.90;;;;;;4998347;28;20026;-71
2023/05/29 09:12:35;;;;;;;9.10;3.35;;;21.00;99.90;;;;;;4998746;28;20015;-72
2023/05/29 09:15:01;;;;;;;6.55;2.80;;;21.10;99.90;;;;;;4998256;28;20121;-72
2023/05/29 09:17:33;;;;;;;8.82;2.97;;;21.10;99.90;;;;;;4997648;28;20027;-72
2023/05/29 09:20:00;;;;;;;8.65;4.10;;;21.10;99.90;;;;;;4998053;28;20030;-72
2023/05/29 09:22:26;;;;;;;9.68;2.95;;;21.20;99.90;;;;;;4998470;28;20068;-72
2023/05/29 09:24:52;;;;;;;5.95;3.15;;;21.20;99.90;;;;;;4997931;28;20032;-71
2023/05/29 09:27:18;;;;;;;5.82;3.17;;;21.50;99.90;;;;;;4998486;28;20121;-72
2023/05/29 09:29:46;;;;;;;9.35;3.67;;;21.70;99.90;;;;;;4997864;28;20113;-71
2023/05/29 09:32:17;;;;;;;7.60;3.00;;;21.80;99.90;;;;;;4997905;28;20022;-71
2023/05/29 09:34:44;;;;;;;8.60;3.10;;;21.70;99.90;;;;;;4998319;28;20030;-72
2023/05/29 09:37:11;;;;;;;7.45;3.20;;;21.70;99.90;;;;;;4997336;28;20030;-72
2023/05/29 09:39:53;;;;;;;6.65;3.30;;;21.70;99.90;;;;;;4997938;28;20026;-71
2023/05/29 09:42:19;;;;;;;5.80;2.78;;;21.90;99.90;;;;;;4998177;28;20034;-72
2023/05/29 09:44:48;;;;;;;10.80;3.70;;;22.10;99.90;;;;;;4997595;28;20126;-71
2023/05/29 09:47:17;;;;;;;9.25;3.28;;;22.20;99.90;;;;;;4997354;28;20026;-72
2023/05/29 09:49:43;;;;;;;8.07;3.30;;;22.50;99.90;;;;;;4997972;28;20022;-73
2023/05/29 09:52:16;;;;;;;6.03;2.90;;;22.40;99.90;;;;;;4997480;28;20022;-71
2023/05/29 09:54:46;;;;;;;6.93;2.97;;;22.60;99.90;;;;;;4997998;28;20026;-72
2023/05/29 09:57:16;;;;;;;6.32;3.03;;;22.90;99.90;;;;;;4997477;28;20080;-73
2023/05/29 09:59:48;;;;;;;7.60;3.72;;;22.90;99.90;;;;;;4997111;28;20022;-73
2023/05/29 10:02:15;;;;;;;5.70;2.72;;;22.80;99.90;;;;;;4997901;28;20037;-72
2023/05/29 10:04:41;;;;;;;6.53;2.88;;;23.00;99.90;;;;;;4997264;28;20112;-72
2023/05/29 10:07:18;;;;;;;8.50;3.20;;;23.00;99.90;;;;;;4997169;28;20077;-72
2023/05/29 10:09:47;;;;;;;7.88;3.00;;;23.10;99.90;;;;;;4997626;28;20054;-72
2023/05/29 10:12:15;;;;;;;8.13;3.22;;;23.40;99.90;;;;;;4997166;28;20029;-72
2023/05/29 10:14:43;;;;;;;5.95;2.70;;;23.40;99.90;;;;;;4997347;28;20058;-71
2023/05/29 10:17:12;;;;;;;4.88;2.78;;;23.40;99.90;;;;;;4996716;28;20026;-72
2023/05/29 10:19:39;;;;;;;7.70;3.30;;;24.00;99.90;;;;;;4996957;28;20058;-72
2023/05/29 10:22:06;;;;;;;8.15;3.13;;;24.00;99.90;;;;;;4997572;28;20027;-72
2023/05/29 10:24:32;;;;;;;6.57;2.78;;;24.10;99.90;;;;;;4997673;28;20030;-72
2023/05/29 10:26:59;;;;;;;8.43;3.00;;;24.30;99.90;;;;;;4996659;28;20035;-72
2023/05/29 10:29:46;;;;;;;7.32;2.60;;;24.40;99.90;;;;;;4999936;28;20030;-72
2023/05/29 10:32:21;;;;;;;6.10;2.55;;;24.50;99.90;;;;;;5003597;28;20022;-72
2023/05/29 10:34:53;;;;;;;6.25;3.35;;;24.50;99.90;;;;;;5004045;28;20109;-71
2023/05/29 10:37:48;;;;;;;6.13;3.05;;;24.80;99.90;;;;;;5003259;28;20046;-72
2023/05/29 10:40:14;;;;;;;9.00;3.45;;;24.90;99.90;;;;;;5003744;28;20120;-71
2023/05/29 10:42:44;;;;;;;7.05;3.13;;;25.20;99.90;;;;;;5004205;28;20062;-72
2023/05/29 10:45:12;;;;;;;6.80;3.05;;;25.40;99.90;;;;;;5003018;28;20030;-71
2023/05/29 10:47:38;;;;;;;8.32;3.33;;;25.60;99.90;;;;;;5003052;28;20040;-71
2023/05/29 10:50:05;;;;;;;8.02;3.08;;;25.50;99.90;;;;;;5004354;28;20022;-72
2023/05/29 10:52:31;;;;;;;6.60;3.38;;;25.70;99.90;;;;;;5003239;28;20084;-72
2023/05/29 10:54:57;;;;;;;6.72;3.13;;;26.00;99.90;;;;;;5002971;28;20031;-72
2023/05/29 10:57:24;;;;;;;8.25;3.33;;;25.80;99.90;;;;;;5003228;28;20022;-72
2023/05/29 11:00:20;;;;;;;5.32;3.30;;;26.10;99.90;;;;;;5003029;28;20088;-72
2023/05/29 11:02:46;;;;;;;8.70;3.75;;;26.30;99.90;;;;;;5002930;28;20026;-72
2023/05/29 11:05:20;;;;;;;9.80;3.08;;;26.40;99.90;;;;;;5003781;28;20054;-73
2023/05/29 11:07:57;;;;;;;5.18;2.95;;;26.70;99.80;;;;;;5003887;28;20045;-72
2023/05/29 11:10:43;;;;;;;9.63;3.65;;;26.70;99.90;;;;;;5003675;28;20077;-72
2023/05/29 11:13:09;;;;;;;10.65;3.65;;;26.60;99.90;;;;;;5003825;28;20050;-72
2023/05/29 11:15:36;;;;;;;7.13;3.10;;;26.60;99.80;;;;;;5003579;28;20033;-72
2023/05/29 11:18:11;;;;;;;5.90;2.90;;;26.60;99.90;;;;;;5003685;28;20022;-72
2023/05/29 11:20:51;;;;;;;7.03;2.90;;;26.60;99.00;;;;;;5003660;28;20033;-72
2023/05/29 11:23:17;;;;;;;10.50;3.08;;;26.40;98.10;;;;;;5002860;28;20022;-72
2023/05/29 11:25:44;;;;;;;8.68;3.15;;;26.60;99.90;;;;;;5003564;28;20034;-73
2023/05/29 11:28:11;;;;;;;6.78;3.15;;;26.70;99.90;;;;;;5002866;28;20037;-72
2023/05/29 11:30:44;;;;;;;6.45;3.42;;;27.00;98.90;;;;;;5003578;28;20034;-72
2023/05/29 11:33:25;;;;;;;6.03;2.95;;;27.20;99.10;;;;;;5002539;28;20026;-72
2023/05/29 11:36:10;;;;;;;7.22;2.72;;;27.40;98.10;;;;;;5003118;28;20026;-72
2023/05/29 11:38:36;;;;;;;7.72;3.20;;;27.60;95.80;;;;;;5003365;28;20049;-71
2023/05/29 11:41:03;;;;;;;6.60;3.17;;;27.70;95.60;;;;;;4999923;28;20030;-71
2023/05/29 11:43:28;;;;;;;5.78;3.17;;;27.60;94.50;;;;;;5000433;28;20026;-70
2023/05/29 11:45:54;;;;;;;4.22;2.55;;;27.40;93.10;;;;;;4999648;28;20033;-71
2023/05/29 11:48:21;;;;;;;7.97;3.40;;;27.60;96.30;;;;;;4999383;28;20027;-71
2023/05/29 11:50:47;;;;;;;6.82;3.25;;;27.50;94.80;;;;;;4999439;28;20022;-70
2023/05/29 11:53:12;;;;;;;6.50;3.00;;;27.60;92.30;;;;;;5000268;28;20037;-70
2023/05/29 11:55:38;;;;;;;7.22;3.42;;;27.50;93.70;;;;;;4999167;28;20030;-70
2023/05/29 11:58:04;;;;;;;14.18;5.97;;;27.60;92.10;;;;;;4999496;28;20072;-70
2023/05/29 12:00:34;;;;;;;4.78;2.75;;;27.70;91.50;;;;;;4999121;28;20033;-69
2023/05/29 12:03:03;;;;;;;6.55;3.05;;;28.00;91.00;;;;;;5000301;28;20035;-70
2023/05/29 12:05:44;;;;;;;5.88;3.25;;;28.10;93.40;;;;;;4999030;28;20038;-69
2023/05/29 12:08:10;;;;;;;9.10;3.75;;;28.30;91.10;;;;;;4999204;28;20026;-70
2023/05/29 12:10:35;;;;;;;8.57;3.60;;;28.30;89.50;;;;;;4999931;28;20026;-69
2023/05/29 12:13:01;;;;;;;7.82;2.97;;;27.80;87.70;;;;;;4999791;28;20041;-70
2023/05/29 12:15:27;;;;;;;6.05;3.58;;;27.80;90.00;;;;;;4998923;28;20069;-70
2023/05/29 12:17:54;;;;;;;5.30;2.70;;;27.90;88.10;;;;;;4999810;28;20105;-71
2023/05/29 12:20:23;;;;;;;11.57;3.30;;;28.00;93.20;;;;;;5000132;28;20027;-75
2023/05/29 12:22:49;;;;;;;4.65;2.80;;;28.00;90.40;;;;;;4998855;28;20029;-76
2023/05/29 12:27:46;;;;;;;7.03;2.67;;;27.80;92.50;;;;;;5021456;22;20046;-68
2023/05/29 12:30:30;;;;;;;5.20;2.80;;;27.60;90.70;;;;;;4998940;28;20085;-68
2023/05/29 12:32:56;;;;;;;3.95;2.60;;;27.30;89.00;;;;;;4999253;28;20023;-68
2023/05/29 12:35:24;;;;;;;6.97;3.45;;;27.30;93.00;;;;;;4999379;28;20106;-70
2023/05/29 12:37:59;;;;;;;7.63;2.92;;;27.30;92.10;;;;;;4999419;28;20046;-69
2023/05/29 12:40:27;;;;;;;4.63;2.90;;;27.20;92.60;;;;;;4998634;28;20048;-69
2023/05/29 12:42:58;;;;;;;5.38;2.65;;;27.20;90.30;;;;;;4998497;28;20026;-70
2023/05/29 12:45:28;;;;;;;4.30;2.75;;;27.20;92.10;;;;;;4998396;28;20027;-68
2023/05/29 12:47:56;;;;;;;6.65;2.78;;;27.10;90.60;;;;;;4998656;28;20018;-68
2023/05/29 12:50:27;;;;;;;5.80;2.88;;;27.10;92.80;;;;;;4999222;28;20088;-68